Flight Track Log - Related Links

Times and Time Zones

All times are in EDT time to prevent confusion due to time zone crossing. See the UAL4530 flight status page for this flight to view local times or setup timezone preferences in your user account.

Time Position Orientation Groundspeed Altitude Reporting Facility
EDT Latitude Longitude Course Direction KTS MPH feet Rate Location/Type
Mon 12:56:24 PM 40.6500 -74.1833 294° West 180 207 2,000  Level New York TRACON
Mon 12:57:24 PM 40.6333 -74.2667 255° West 260 299 3,900 1,000 Climbing New York TRACON
Mon 12:58:24 PM 40.6500 -74.3667 282° West 281 323 4,000 900 Climbing New York TRACON
Mon 12:59:00 PM 40.7491 -74.6897 277° West  Level FlightAware Approximate
Mon 12:59:24 PM 40.7000 -74.4333 315° West 306 352 5,700  Level New York TRACON
Mon 01:00:00 PM 40.7597 -74.8254 276° West  Level FlightAware Approximate
Mon 01:00:24 PM 40.7500 -74.5000 315° West 284 327 8,600  Level New York TRACON
Mon 01:01:00 PM 40.7803 -74.9576 294° West  Level FlightAware Approximate
Mon 01:01:24 PM 40.7667 -74.6000 282° West 294 338 10,300  Level New York TRACON
Mon 01:01:52 PM 40.7642 -74.6589 267° West 314 361 10,500 1,705 Climbing New York Center
Mon 01:02:52 PM 40.7750 -74.7772 277° West 348 400 12,800 2,083 Climbing New York Center
Mon 01:03:53 PM 40.7836 -74.8847 276° West 351 404 14,700 1,426 Climbing New York Center
Mon 01:04:54 PM 40.7956 -75.0225 277° West 346 398 15,700 1,091 Climbing New York Center
Mon 01:05:54 PM 40.7969 -75.1542 271° West 357 411 16,900 1,119 Climbing New York Center
Mon 01:06:52 PM 40.7592 -75.2750 242° Southwest 357 411 17,900 1,068 Climbing New York Center
Mon 01:07:00 PM 40.7295 -75.2764 242° Southwest  Level FlightAware Approximate
Mon 01:07:52 PM 40.7186 -75.4011 247° West 373 429 19,000  Level New York Center
Mon 01:08:52 PM 40.6742 -75.5267 245° Southwest 378 435 20,200 1,240 Climbing New York Center
Mon 01:09:53 PM 40.6336 -75.6525 247° West 378 435 21,500 1,250 Climbing New York Center
Mon 01:10:52 PM 40.5908 -75.7778 246° West 378 435 22,700 1,250 Climbing New York Center
Mon 01:11:53 PM 40.5500 -75.9031 247° West 378 435 24,000 1,230 Climbing New York Center
Mon 01:12:54 PM 40.5056 -76.0172 243° Southwest 378 435 25,200 1,250 Climbing New York Center
Mon 01:13:53 PM 40.4644 -76.1397 246° West 378 435 26,500 1,261 Climbing New York Center
Mon 01:14:53 PM 40.4256 -76.2619 247° West 372 428 27,700 1,091 Climbing New York Center
Mon 01:15:54 PM 40.3825 -76.3786 244° Southwest 372 428 28,700 992 Climbing New York Center
Mon 01:16:54 PM 40.3456 -76.4953 247° West 367 422 29,700 1,017 Climbing New York Center
Mon 01:17:52 PM 40.3147 -76.6153 251° West 359 413 30,700 966 Climbing New York Center
Mon 01:18:52 PM 40.2878 -76.7356 254° West 354 407 31,600 942 Climbing New York Center
Mon 01:19:53 PM 40.2569 -76.8525 251° West 354 407 32,600 992 Climbing New York Center
Mon 01:20:53 PM 40.2236 -76.9719 250° West 354 407 33,600 992 Climbing New York Center
Mon 01:21:54 PM 40.1964 -77.0947 254° West 354 407 34,600 966 Climbing New York Center
Mon 01:22:51 PM 40.1650 -77.2086 250° West 354 407 35,500 528 Climbing New York Center
Mon 01:24:33 PM 40.1442 -77.4217 263° West 327 376 36,000 185 Climbing Cleveland Center
Mon 01:25:33 PM 40.1414 -77.5519 268° West 342 394 36,000  Level Cleveland Center
Mon 01:26:33 PM 40.1408 -77.6853 270° West 367 422 36,000  Level Cleveland Center
Mon 01:27:33 PM 40.1358 -77.8267 267° West 378 435 36,000  Level Cleveland Center
Mon 01:28:33 PM 40.1289 -77.9736 267° West 399 459 36,000  Level Cleveland Center
Mon 01:29:33 PM 40.1239 -78.1206 267° West 405 466 36,000  Level Cleveland Center
Mon 01:30:33 PM 40.1208 -78.2672 268° West 405 466 36,000  Level Cleveland Center
Mon 01:31:33 PM 40.1175 -78.4194 268° West 405 466 36,000  Level Cleveland Center
Mon 01:32:33 PM 40.1119 -78.5689 267° West 410 472 36,000  Level Cleveland Center
Mon 01:33:33 PM 40.1061 -78.7183 267° West 415 478 36,000  Level Cleveland Center
Mon 01:34:33 PM 40.1000 -78.8678 267° West 415 478 36,000  Level Cleveland Center
Mon 01:35:33 PM 40.0961 -79.0144 268° West 415 478 36,000  Level Cleveland Center
Mon 01:36:33 PM 40.0894 -79.1611 267° West 415 478 36,000  Level Cleveland Center
Mon 01:37:33 PM 40.0850 -79.3103 268° West 415 478 36,000  Level Cleveland Center
Mon 01:38:34 PM 40.0803 -79.4569 268° West 415 478 36,000  Level Cleveland Center
Mon 01:39:33 PM 40.0756 -79.6064 268° West 415 478 36,000  Level Cleveland Center
Mon 01:40:33 PM 40.0703 -79.7531 267° West 415 478 36,000  Level Cleveland Center
Mon 01:41:33 PM 40.0631 -79.8994 266° West 410 472 36,000  Level Cleveland Center
Mon 01:42:33 PM 40.0658 -80.0458 271° West 410 472 36,000  Level Cleveland Center
Mon 01:43:33 PM 40.0644 -80.1978 269° West 405 466 36,000  Level Cleveland Center
Mon 01:44:33 PM 40.0689 -80.3497 272° West 416 479 36,000  Level Cleveland Center
Mon 01:45:33 PM 40.0733 -80.5017 272° West 421 484 36,000  Level Cleveland Center
Mon 01:46:33 PM 40.0756 -80.6536 271° West 421 484 36,000  Level Cleveland Center
Mon 01:48:38 PM 40.0764 -80.9731 270° West 428 493 36,000  Level Indianapolis Center
Mon 01:49:40 PM 40.0772 -81.1297 270° West 428 493 36,000  Level Indianapolis Center
Mon 01:50:42 PM 40.0789 -81.2886 271° West 431 496 36,000  Level Indianapolis Center
Mon 01:51:43 PM 40.0803 -81.4481 271° West 433 498 36,000  Level Indianapolis Center
Mon 01:52:45 PM 40.0811 -81.6064 270° West 433 498 36,000  Level Indianapolis Center
Mon 01:53:47 PM 40.0817 -81.7792 270° West 432 497 36,000 -48 Level Indianapolis Center
Mon 01:54:49 PM 40.0828 -81.9364 271° West 430 495 35,900  Descending Indianapolis Center
Mon 01:55:51 PM 40.0836 -82.0942 270° West 429 494 36,000 48 Climbing Indianapolis Center
Mon 01:56:53 PM 40.0825 -82.2503 270° West 428 493 36,000  Level Indianapolis Center
Mon 01:57:55 PM 40.0831 -82.4067 270° West 429 494 36,000  Level Indianapolis Center
Mon 01:58:57 PM 40.0822 -82.5625 270° West 427 491 36,000  Level Indianapolis Center
Mon 01:59:59 PM 40.0819 -82.7175 270° West 425 489 36,000  Level Indianapolis Center
Mon 02:01:00 PM 40.0811 -82.8981 270° West 425 489 36,000  Level Indianapolis Center
Mon 02:02:02 PM 40.0794 -83.0517 269° West 422 486 36,000  Level Indianapolis Center
Mon 02:03:04 PM 40.0783 -83.2050 270° West 421 484 36,000  Level Indianapolis Center
Mon 02:04:06 PM 40.0775 -83.3583 270° West 423 487 36,000  Level Indianapolis Center
Mon 02:05:08 PM 40.0756 -83.5114 269° West 424 488 36,000  Level Indianapolis Center
Mon 02:06:10 PM 40.0742 -83.6647 269° West 423 487 36,000  Level Indianapolis Center
Mon 02:07:12 PM 40.0708 -83.8436 269° West 423 487 36,000  Level Indianapolis Center
Mon 02:08:14 PM 40.0683 -83.9964 269° West 421 484 36,000  Level Indianapolis Center
Mon 02:09:15 PM 40.0664 -84.1497 269° West 421 484 36,000  Level Indianapolis Center
Mon 02:10:17 PM 40.0628 -84.3028 268° West 419 482 36,000  Level Indianapolis Center
Mon 02:11:19 PM 40.0611 -84.4550 269° West 417 480 36,000  Level Indianapolis Center
Mon 02:12:21 PM 40.0567 -84.6086 268° West 421 484 36,000  Level Indianapolis Center
Mon 02:13:23 PM 40.0536 -84.7603 269° West 417 480 36,000  Level Indianapolis Center
Mon 02:14:25 PM 40.0494 -84.9325 268° West 413 475 36,000  Level Indianapolis Center
Mon 02:15:26 PM 40.0456 -85.0847 268° West 416 479 36,000  Level Indianapolis Center
Mon 02:16:28 PM 40.0456 -85.2367 270° West 416 479 36,000  Level Indianapolis Center
Mon 02:17:30 PM 40.0447 -85.3883 270° West 417 480 36,000  Level Indianapolis Center
Mon 02:18:32 PM 40.0419 -85.5389 269° West 415 478 36,000  Level Indianapolis Center
Mon 02:19:34 PM 40.0400 -85.6894 269° West 414 476 36,000  Level Indianapolis Center
Mon 02:20:48 PM 40.0372 -85.8894 269° West 414 476 36,000  Level Indianapolis Center
Mon 02:21:50 PM 40.0344 -86.0403 269° West 414 476 36,000  Level Indianapolis Center
Mon 02:22:44 PM 40.0325 -86.1642 269° West 415 478 36,000  Level Chicago Center
Mon 02:23:46 PM 40.0286 -86.3383 268° West 414 476 36,000  Level Chicago Center
Mon 02:24:55 PM 40.0250 -86.5122 269° West 412 474 36,000  Level Indianapolis Center
Mon 02:25:57 PM 40.0217 -86.6622 268° West 414 476 36,000  Level Indianapolis Center
Mon 02:26:59 PM 40.0183 -86.8131 268° West 416 479 36,000  Level Indianapolis Center
Mon 02:28:01 PM 40.0142 -86.9631 268° West 414 476 36,000  Level Indianapolis Center
Mon 02:29:02 PM 40.0106 -87.1147 268° West 415 478 36,000  Level Indianapolis Center
Mon 02:30:04 PM 40.0069 -87.2656 268° West 415 478 36,000  Level Indianapolis Center
Mon 02:31:06 PM 40.0019 -87.4167 268° West 416 479 36,000  Level Indianapolis Center
Mon 02:32:08 PM 39.9961 -87.5931 268° West 413 475 36,000  Level Indianapolis Center
Mon 02:33:10 PM 39.9925 -87.7442 268° West 415 478 36,000  Level Indianapolis Center
Mon 02:34:12 PM 39.9867 -87.8925 267° West 410 472 36,000  Level Indianapolis Center
Mon 02:35:07 PM 39.9825 -88.0181 268° West 413 475 36,000  Level Chicago Center
Mon 02:36:09 PM 39.9786 -88.1714 268° West 411 473 36,000  Level Chicago Center
Mon 02:37:11 PM 39.9717 -88.3194 267° West 409 471 36,000  Level Chicago Center
Mon 02:38:13 PM 39.9667 -88.4678 268° West 410 472 36,000  Level Chicago Center
Mon 02:39:15 PM 39.9600 -88.6472 267° West 416 479 36,000  Level Chicago Center
Mon 02:40:17 PM 39.9539 -88.7953 267° West 410 472 36,000  Level Chicago Center
Mon 02:41:25 PM 39.9469 -88.9453 267° West 412 474 36,000  Level Kansas City Center
Mon 02:42:27 PM 39.9392 -89.1239 267° West 411 473 36,000  Level Kansas City Center
Mon 02:43:29 PM 39.9322 -89.2731 267° West 412 474 36,000  Level Kansas City Center
Mon 02:44:31 PM 39.9253 -89.4225 267° West 412 474 36,000  Level Kansas City Center
Mon 02:45:33 PM 39.9175 -89.5692 266° West 407 468 36,000  Level Kansas City Center
Mon 02:46:35 PM 39.9103 -89.7192 266° West 412 474 36,000  Level Kansas City Center
Mon 02:47:37 PM 39.9031 -89.8692 266° West 413 475 36,000  Level Kansas City Center
Mon 02:48:39 PM 39.8958 -90.0186 266° West 412 474 36,000  Level Kansas City Center
Mon 02:49:41 PM 39.8861 -90.1986 266° West 413 475 36,000  Level Kansas City Center
Mon 02:50:43 PM 39.8783 -90.3483 266° West 415 478 36,000  Level Kansas City Center
Mon 02:51:45 PM 39.8703 -90.4992 266° West 415 478 36,000  Level Kansas City Center
Mon 02:52:47 PM 39.8617 -90.6467 266° West 411 473 36,000  Level Kansas City Center
Mon 02:53:49 PM 39.8533 -90.7900 266° West 403 464 36,000  Level Kansas City Center
Mon 02:54:51 PM 39.8453 -90.9336 266° West 399 459 36,000  Level Kansas City Center
Mon 02:55:52 PM 39.8350 -91.0900 265° West 404 465 36,000  Level Kansas City Center
Mon 02:56:54 PM 39.8267 -91.2367 266° West 407 468 36,000  Level Kansas City Center
Mon 02:57:56 PM 39.8150 -91.3847 264° West 412 474 36,000  Level Kansas City Center
Mon 02:58:58 PM 39.8044 -91.5617 266° West 413 475 36,000  Level Kansas City Center
Mon 03:00:00 PM 39.7950 -91.7094 265° West 413 475 36,000  Level Kansas City Center
Mon 03:01:02 PM 39.7856 -91.8553 265° West 410 472 36,000  Level Kansas City Center
Mon 03:02:04 PM 39.7764 -92.0025 265° West 410 472 36,000 -435 Level Kansas City Center
Mon 03:03:06 PM 39.7664 -92.1492 265° West 410 472 35,100 -919 Descending Kansas City Center
Mon 03:04:08 PM 39.7556 -92.2928 264° West 404 465 34,100 -1,024 Descending Kansas City Center
Mon 03:05:09 PM 39.7431 -92.4603 265° West 395 455 33,000 -976 Descending Kansas City Center
Mon 03:06:11 PM 39.7339 -92.5989 265° West 389 448 32,100 -581 Descending Kansas City Center
Mon 03:07:13 PM 39.7233 -92.7381 264° West 389 448 31,800 -1,355 Descending Kansas City Center
Mon 03:08:15 PM 39.7114 -92.8781 264° West 389 448 29,300 -2,565 Descending Kansas City Center
Mon 03:09:17 PM 39.7003 -93.0250 264° West 401 461 26,500 -2,565 Descending Kansas City Center
Mon 03:10:19 PM 39.6878 -93.1747 264° West 415 478 24,000 -2,565 Descending Kansas City Center
Mon 03:11:21 PM 39.6744 -93.3525 264° West 413 475 21,200 -2,661 Descending Kansas City Center
Mon 03:12:23 PM 39.6625 -93.4919 264° West 400 460 18,500 -2,468 Descending Kansas City Center
Mon 03:13:25 PM 39.6519 -93.6250 264° West 379 436 16,100 -2,226 Descending Kansas City Center
Mon 03:14:27 PM 39.6403 -93.7656 264° West 362 417 13,900 -2,000 Descending Kansas City Center
Mon 03:15:28 PM 39.6269 -93.8858 262° West 355 409 12,000 -1,756 Descending Kansas City Center
Mon 03:16:30 PM 39.5719 -93.9917 236° Southwest 309 356 10,300 -1,500 Descending Kansas City Center
Mon 03:17:32 PM 39.5350 -94.0681 238° Southwest 264 304 8,900 -1,597 Descending Kansas City Center
Mon 03:18:34 PM 39.5233 -94.1703 262° West 256 295 7,000 -919 Descending Kansas City Center
Mon 03:19:36 PM 39.5133 -94.2544 261° West 249 287 7,000 -242 Level Kansas City Center
Mon 03:20:38 PM 39.4961 -94.3378 255° West 253 291 6,500 -484 Descending Kansas City Center
Mon 03:21:40 PM 39.4708 -94.4333 251° West 251 289 6,000 -629 Descending Kansas City Center
Mon 03:22:42 PM 39.4503 -94.5128 251° West 245 282 5,200 -919 Descending Kansas City Center
Mon 03:23:44 PM 39.4256 -94.6092 252° West 252 290 4,100 -968 Descending Kansas City Center
Mon 03:24:46 PM 39.4061 -94.6844 252° West 226 260 3,200 -1,065 Descending Kansas City Center
Mon 03:25:48 PM 39.3614 -94.7094 203° Southwest 155 178 1,900 -968 Descending Kansas City Center
Mon 03:26:50 PM 39.3272 -94.7197 193° South 132 152 1,200 -677 Descending Kansas City Center
Mon 03:28:00 PM 39.2976 -94.7139 270° West  Level Estimated
Mon 03:35:00 PM 39.2976 -94.7139 270° West  Level Estimated

Login

Don't have an account? Register now (free) for customized features, flight alerts, and more!